sensor_id;sensor_type;location;lat;lon;timestamp;P1;durP1;ratioP1;P2;durP2;ratioP2
47635;SDS011;33364;50.766;15.338;2023-10-09T00:02:13;7.75;;;3.67;;
47635;SDS011;33364;50.766;15.338;2023-10-09T00:04:40;6.80;;;2.22;;
47635;SDS011;33364;50.766;15.338;2023-10-09T00:07:11;4.90;;;2.47;;
47635;SDS011;33364;50.766;15.338;2023-10-09T00:09:37;5.55;;;2.75;;
47635;SDS011;33364;50.766;15.338;2023-10-09T00:12:18;4.38;;;2.50;;
47635;SDS011;33364;50.766;15.338;2023-10-09T00:14:48;3.58;;;1.67;;
47635;SDS011;33364;50.766;15.338;2023-10-09T00:17:19;2.80;;;1.60;;
47635;SDS011;33364;50.766;15.338;2023-10-09T00:19:45;5.13;;;2.83;;
47635;SDS011;33364;50.766;15.338;2023-10-09T00:22:15;4.25;;;1.80;;
47635;SDS011;33364;50.766;15.338;2023-10-09T00:24:50;3.42;;;1.85;;
47635;SDS011;33364;50.766;15.338;2023-10-09T00:27:34;3.30;;;1.80;;
47635;SDS011;33364;50.766;15.338;2023-10-09T00:30:02;4.22;;;1.90;;
47635;SDS011;33364;50.766;15.338;2023-10-09T00:32:31;3.85;;;1.80;;
47635;SDS011;33364;50.766;15.338;2023-10-09T00:34:59;3.15;;;1.63;;
47635;SDS011;33364;50.766;15.338;2023-10-09T00:37:44;4.43;;;1.88;;
47635;SDS011;33364;50.766;15.338;2023-10-09T00:40:11;4.22;;;1.80;;
47635;SDS011;33364;50.766;15.338;2023-10-09T00:42:45;3.17;;;1.70;;
47635;SDS011;33364;50.766;15.338;2023-10-09T00:45:14;2.45;;;1.60;;
47635;SDS011;33364;50.766;15.338;2023-10-09T00:47:50;5.65;;;1.92;;
47635;SDS011;33364;50.766;15.338;2023-10-09T00:50:21;4.35;;;2.00;;
47635;SDS011;33364;50.766;15.338;2023-10-09T00:52:52;4.38;;;1.75;;
47635;SDS011;33364;50.766;15.338;2023-10-09T00:55:27;3.08;;;1.50;;
47635;SDS011;33364;50.766;15.338;2023-10-09T00:58:03;3.30;;;1.85;;
47635;SDS011;33364;50.766;15.338;2023-10-09T01:00:43;3.83;;;1.30;;
47635;SDS011;33364;50.766;15.338;2023-10-09T01:03:09;4.85;;;1.50;;
47635;SDS011;33364;50.766;15.338;2023-10-09T01:05:53;5.70;;;1.98;;
47635;SDS011;33364;50.766;15.338;2023-10-09T01:08:28;4.10;;;1.92;;
47635;SDS011;33364;50.766;15.338;2023-10-09T01:11:13;4.70;;;1.73;;
47635;SDS011;33364;50.766;15.338;2023-10-09T01:13:55;2.03;;;1.30;;
47635;SDS011;33364;50.766;15.338;2023-10-09T01:16:37;3.20;;;1.50;;
47635;SDS011;33364;50.766;15.338;2023-10-09T01:19:03;3.83;;;1.50;;
47635;SDS011;33364;50.766;15.338;2023-10-09T01:21:38;2.25;;;1.30;;
47635;SDS011;33364;50.766;15.338;2023-10-09T01:24:07;4.15;;;1.70;;
47635;SDS011;33364;50.766;15.338;2023-10-09T01:26:39;5.15;;;1.83;;
47635;SDS011;33364;50.766;15.338;2023-10-09T01:29:12;3.40;;;1.40;;
47635;SDS011;33364;50.766;15.338;2023-10-09T01:31:44;4.47;;;1.30;;
47635;SDS011;33364;50.766;15.338;2023-10-09T01:34:19;8.48;;;1.80;;
47635;SDS011;33364;50.766;15.338;2023-10-09T01:36:50;5.65;;;2.97;;
47635;SDS011;33364;50.766;15.338;2023-10-09T01:39:19;3.28;;;1.75;;
47635;SDS011;33364;50.766;15.338;2023-10-09T01:47:03;4.80;;;1.70;;
47635;SDS011;33364;50.766;15.338;2023-10-09T01:49:36;6.05;;;1.73;;
47635;SDS011;33364;50.766;15.338;2023-10-09T01:52:03;3.92;;;1.88;;
47635;SDS011;33364;50.766;15.338;2023-10-09T01:54:38;5.63;;;2.90;;
47635;SDS011;33364;50.766;15.338;2023-10-09T01:57:12;14.88;;;6.78;;
47635;SDS011;33364;50.766;15.338;2023-10-09T01:59:38;5.30;;;2.15;;
47635;SDS011;33364;50.766;15.338;2023-10-09T02:02:12;4.22;;;2.13;;
47635;SDS011;33364;50.766;15.338;2023-10-09T02:04:51;3.42;;;1.83;;
47635;SDS011;33364;50.766;15.338;2023-10-09T02:07:31;3.00;;;1.70;;
47635;SDS011;33364;50.766;15.338;2023-10-09T02:10:06;3.38;;;1.75;;
47635;SDS011;33364;50.766;15.338;2023-10-09T02:12:47;2.80;;;1.73;;
47635;SDS011;33364;50.766;15.338;2023-10-09T02:15:17;4.10;;;2.00;;
47635;SDS011;33364;50.766;15.338;2023-10-09T02:18:03;5.18;;;1.77;;
47635;SDS011;33364;50.766;15.338;2023-10-09T02:20:42;5.88;;;1.73;;
47635;SDS011;33364;50.766;15.338;2023-10-09T02:23:21;5.15;;;1.80;;
47635;SDS011;33364;50.766;15.338;2023-10-09T02:25:55;2.88;;;1.55;;
47635;SDS011;33364;50.766;15.338;2023-10-09T02:28:23;2.47;;;1.83;;
47635;SDS011;33364;50.766;15.338;2023-10-09T02:30:48;4.68;;;1.65;;
47635;SDS011;33364;50.766;15.338;2023-10-09T02:33:15;6.78;;;3.75;;
47635;SDS011;33364;50.766;15.338;2023-10-09T02:35:46;4.35;;;2.67;;
47635;SDS011;33364;50.766;15.338;2023-10-09T02:38:17;6.55;;;2.40;;
47635;SDS011;33364;50.766;15.338;2023-10-09T02:40:43;2.83;;;1.60;;
47635;SDS011;33364;50.766;15.338;2023-10-09T02:43:30;4.25;;;1.63;;
47635;SDS011;33364;50.766;15.338;2023-10-09T02:46:12;4.65;;;2.25;;
47635;SDS011;33364;50.766;15.338;2023-10-09T02:48:46;4.75;;;2.47;;
47635;SDS011;33364;50.766;15.338;2023-10-09T02:51:17;3.53;;;1.88;;
47635;SDS011;33364;50.766;15.338;2023-10-09T02:53:58;4.68;;;2.15;;
47635;SDS011;33364;50.766;15.338;2023-10-09T02:56:33;3.30;;;1.90;;
47635;SDS011;33364;50.766;15.338;2023-10-09T02:59:13;3.13;;;2.10;;
47635;SDS011;33364;50.766;15.338;2023-10-09T03:01:40;4.90;;;1.50;;
47635;SDS011;33364;50.766;15.338;2023-10-09T03:04:06;5.25;;;2.30;;
47635;SDS011;33364;50.766;15.338;2023-10-09T03:06:36;8.13;;;2.67;;
47635;SDS011;33364;50.766;15.338;2023-10-09T03:09:18;3.72;;;1.65;;
47635;SDS011;33364;50.766;15.338;2023-10-09T03:11:51;3.83;;;1.83;;
47635;SDS011;33364;50.766;15.338;2023-10-09T03:14:25;5.72;;;2.05;;
47635;SDS011;33364;50.766;15.338;2023-10-09T03:16:52;2.60;;;1.55;;
47635;SDS011;33364;50.766;15.338;2023-10-09T03:19:18;5.40;;;1.88;;
47635;SDS011;33364;50.766;15.338;2023-10-09T03:21:44;3.45;;;2.45;;
47635;SDS011;33364;50.766;15.338;2023-10-09T03:24:10;3.63;;;1.90;;
47635;SDS011;33364;50.766;15.338;2023-10-09T03:26:36;3.53;;;1.90;;
47635;SDS011;33364;50.766;15.338;2023-10-09T03:29:02;4.15;;;2.17;;
47635;SDS011;33364;50.766;15.338;2023-10-09T03:31:35;3.35;;;2.20;;
47635;SDS011;33364;50.766;15.338;2023-10-09T03:34:02;7.05;;;2.15;;
47635;SDS011;33364;50.766;15.338;2023-10-09T03:36:28;4.20;;;3.17;;
47635;SDS011;33364;50.766;15.338;2023-10-09T03:38:56;4.15;;;2.67;;
47635;SDS011;33364;50.766;15.338;2023-10-09T03:41:23;5.72;;;2.67;;
47635;SDS011;33364;50.766;15.338;2023-10-09T03:43:52;4.07;;;2.25;;
47635;SDS011;33364;50.766;15.338;2023-10-09T03:46:20;6.47;;;2.47;;
47635;SDS011;33364;50.766;15.338;2023-10-09T03:48:48;6.88;;;2.95;;
47635;SDS011;33364;50.766;15.338;2023-10-09T03:51:15;6.03;;;3.60;;
47635;SDS011;33364;50.766;15.338;2023-10-09T03:53:50;25.20;;;13.80;;
47635;SDS011;33364;50.766;15.338;2023-10-09T03:56:18;11.85;;;6.63;;
47635;SDS011;33364;50.766;15.338;2023-10-09T03:58:50;7.13;;;4.80;;
47635;SDS011;33364;50.766;15.338;2023-10-09T04:01:20;9.25;;;6.18;;
47635;SDS011;33364;50.766;15.338;2023-10-09T04:03:57;12.25;;;6.32;;
47635;SDS011;33364;50.766;15.338;2023-10-09T04:06:25;7.57;;;3.80;;
47635;SDS011;33364;50.766;15.338;2023-10-09T04:08:56;9.27;;;4.18;;
47635;SDS011;33364;50.766;15.338;2023-10-09T04:11:24;6.70;;;3.67;;
47635;SDS011;33364;50.766;15.338;2023-10-09T04:13:51;7.03;;;4.60;;
47635;SDS011;33364;50.766;15.338;2023-10-09T04:16:18;7.65;;;5.35;;
47635;SDS011;33364;50.766;15.338;2023-10-09T04:18:57;7.05;;;4.50;;
47635;SDS011;33364;50.766;15.338;2023-10-09T04:21:24;5.70;;;4.25;;
47635;SDS011;33364;50.766;15.338;2023-10-09T04:24:09;7.15;;;3.60;;
47635;SDS011;33364;50.766;15.338;2023-10-09T04:26:38;13.18;;;6.80;;
47635;SDS011;33364;50.766;15.338;2023-10-09T04:29:11;9.77;;;6.28;;
47635;SDS011;33364;50.766;15.338;2023-10-09T04:31:52;7.05;;;3.88;;
47635;SDS011;33364;50.766;15.338;2023-10-09T04:34:21;8.00;;;5.07;;
47635;SDS011;33364;50.766;15.338;2023-10-09T04:36:52;7.13;;;4.70;;
47635;SDS011;33364;50.766;15.338;2023-10-09T04:39:48;11.88;;;6.97;;
47635;SDS011;33364;50.766;15.338;2023-10-09T04:42:15;11.38;;;5.07;;
47635;SDS011;33364;50.766;15.338;2023-10-09T04:44:45;10.00;;;4.95;;
47635;SDS011;33364;50.766;15.338;2023-10-09T04:47:31;6.03;;;4.15;;
47635;SDS011;33364;50.766;15.338;2023-10-09T04:50:02;6.00;;;4.68;;
47635;SDS011;33364;50.766;15.338;2023-10-09T04:52:37;9.70;;;4.82;;
47635;SDS011;33364;50.766;15.338;2023-10-09T04:55:03;6.53;;;4.53;;
47635;SDS011;33364;50.766;15.338;2023-10-09T04:57:39;7.63;;;4.88;;
47635;SDS011;33364;50.766;15.338;2023-10-09T05:00:10;6.82;;;4.30;;
47635;SDS011;33364;50.766;15.338;2023-10-09T05:02:48;10.02;;;4.30;;
47635;SDS011;33364;50.766;15.338;2023-10-09T05:05:20;8.70;;;4.15;;
47635;SDS011;33364;50.766;15.338;2023-10-09T05:08:05;9.32;;;5.20;;
47635;SDS011;33364;50.766;15.338;2023-10-09T05:10:50;4.38;;;3.45;;
47635;SDS011;33364;50.766;15.338;2023-10-09T05:13:22;6.35;;;3.58;;
47635;SDS011;33364;50.766;15.338;2023-10-09T05:18:43;7.50;;;4.72;;
47635;SDS011;33364;50.766;15.338;2023-10-09T05:24:10;6.35;;;4.43;;
47635;SDS011;33364;50.766;15.338;2023-10-09T05:26:46;8.50;;;4.88;;
47635;SDS011;33364;50.766;15.338;2023-10-09T05:32:00;7.63;;;4.93;;
47635;SDS011;33364;50.766;15.338;2023-10-09T05:34:43;10.95;;;4.97;;
47635;SDS011;33364;50.766;15.338;2023-10-09T05:37:28;8.20;;;4.95;;
47635;SDS011;33364;50.766;15.338;2023-10-09T05:39:58;8.00;;;4.80;;
47635;SDS011;33364;50.766;15.338;2023-10-09T05:42:26;8.73;;;5.78;;
47635;SDS011;33364;50.766;15.338;2023-10-09T05:45:08;9.65;;;5.78;;
47635;SDS011;33364;50.766;15.338;2023-10-09T05:47:54;10.00;;;6.18;;
47635;SDS011;33364;50.766;15.338;2023-10-09T05:50:29;7.20;;;4.88;;
47635;SDS011;33364;50.766;15.338;2023-10-09T05:53:03;8.80;;;6.95;;
47635;SDS011;33364;50.766;15.338;2023-10-09T05:55:32;8.93;;;6.45;;
47635;SDS011;33364;50.766;15.338;2023-10-09T05:58:16;13.57;;;5.88;;
47635;SDS011;33364;50.766;15.338;2023-10-09T06:01:00;14.63;;;8.73;;
47635;SDS011;33364;50.766;15.338;2023-10-09T06:03:45;15.25;;;7.38;;
47635;SDS011;33364;50.766;15.338;2023-10-09T06:06:16;12.40;;;8.13;;
47635;SDS011;33364;50.766;15.338;2023-10-09T06:09:05;7.53;;;5.57;;
47635;SDS011;33364;50.766;15.338;2023-10-09T06:11:44;9.10;;;6.35;;
47635;SDS011;33364;50.766;15.338;2023-10-09T06:14:20;9.93;;;6.28;;
47635;SDS011;33364;50.766;15.338;2023-10-09T06:17:10;8.05;;;5.82;;
47635;SDS011;33364;50.766;15.338;2023-10-09T06:19:37;8.82;;;6.15;;
47635;SDS011;33364;50.766;15.338;2023-10-09T06:22:09;10.05;;;6.00;;
47635;SDS011;33364;50.766;15.338;2023-10-09T06:25:05;6.55;;;5.07;;
47635;SDS011;33364;50.766;15.338;2023-10-09T06:27:34;10.23;;;7.82;;
47635;SDS011;33364;50.766;15.338;2023-10-09T06:30:00;11.40;;;8.10;;
47635;SDS011;33364;50.766;15.338;2023-10-09T06:32:40;14.60;;;9.45;;
47635;SDS011;33364;50.766;15.338;2023-10-09T06:35:25;8.30;;;6.57;;
47635;SDS011;33364;50.766;15.338;2023-10-09T06:37:58;9.35;;;6.10;;
47635;SDS011;33364;50.766;15.338;2023-10-09T06:40:34;6.97;;;5.40;;
47635;SDS011;33364;50.766;15.338;2023-10-09T06:43:20;8.07;;;6.25;;
47635;SDS011;33364;50.766;15.338;2023-10-09T06:45:47;9.55;;;6.90;;
47635;SDS011;33364;50.766;15.338;2023-10-09T06:48:24;6.97;;;5.82;;
47635;SDS011;33364;50.766;15.338;2023-10-09T06:51:06;8.25;;;5.88;;
47635;SDS011;33364;50.766;15.338;2023-10-09T06:53:53;7.55;;;5.25;;
47635;SDS011;33364;50.766;15.338;2023-10-09T06:56:27;7.10;;;5.93;;
47635;SDS011;33364;50.766;15.338;2023-10-09T06:58:56;7.00;;;5.50;;
47635;SDS011;33364;50.766;15.338;2023-10-09T07:01:44;9.35;;;5.82;;
47635;SDS011;33364;50.766;15.338;2023-10-09T07:04:15;6.68;;;5.68;;
47635;SDS011;33364;50.766;15.338;2023-10-09T07:06:53;8.00;;;6.30;;
47635;SDS011;33364;50.766;15.338;2023-10-09T07:09:22;7.53;;;5.18;;
47635;SDS011;33364;50.766;15.338;2023-10-09T07:11:49;10.88;;;7.47;;
47635;SDS011;33364;50.766;15.338;2023-10-09T07:14:16;8.38;;;6.22;;
47635;SDS011;33364;50.766;15.338;2023-10-09T07:19:29;7.05;;;5.90;;
47635;SDS011;33364;50.766;15.338;2023-10-09T07:22:01;9.07;;;6.10;;
47635;SDS011;33364;50.766;15.338;2023-10-09T07:24:30;7.05;;;5.18;;
47635;SDS011;33364;50.766;15.338;2023-10-09T07:27:21;8.27;;;6.30;;
47635;SDS011;33364;50.766;15.338;2023-10-09T07:30:06;8.50;;;6.57;;
47635;SDS011;33364;50.766;15.338;2023-10-09T07:32:53;7.50;;;6.30;;
47635;SDS011;33364;50.766;15.338;2023-10-09T07:35:21;7.78;;;5.72;;
47635;SDS011;33364;50.766;15.338;2023-10-09T07:38:11;17.30;;;9.85;;
47635;SDS011;33364;50.766;15.338;2023-10-09T07:40:40;19.52;;;10.98;;
47635;SDS011;33364;50.766;15.338;2023-10-09T07:43:42;35.35;;;15.98;;
47635;SDS011;33364;50.766;15.338;2023-10-09T07:46:08;27.85;;;13.85;;
47635;SDS011;33364;50.766;15.338;2023-10-09T07:48:57;26.38;;;12.13;;
47635;SDS011;33364;50.766;15.338;2023-10-09T07:51:25;31.00;;;14.75;;
47635;SDS011;33364;50.766;15.338;2023-10-09T07:54:01;17.35;;;9.32;;
47635;SDS011;33364;50.766;15.338;2023-10-09T07:56:36;60.83;;;23.30;;
47635;SDS011;33364;50.766;15.338;2023-10-09T07:59:18;52.88;;;21.65;;
47635;SDS011;33364;50.766;15.338;2023-10-09T08:01:45;34.45;;;14.05;;
47635;SDS011;33364;50.766;15.338;2023-10-09T08:04:18;36.38;;;14.00;;
47635;SDS011;33364;50.766;15.338;2023-10-09T08:07:02;16.13;;;8.90;;
47635;SDS011;33364;50.766;15.338;2023-10-09T08:09:32;17.42;;;9.73;;
47635;SDS011;33364;50.766;15.338;2023-10-09T08:12:12;15.35;;;8.27;;
47635;SDS011;33364;50.766;15.338;2023-10-09T08:14:57;12.35;;;8.55;;
47635;SDS011;33364;50.766;15.338;2023-10-09T08:20:39;16.73;;;10.95;;
47635;SDS011;33364;50.766;15.338;2023-10-09T08:23:31;18.50;;;9.63;;
47635;SDS011;33364;50.766;15.338;2023-10-09T08:26:14;15.05;;;8.35;;
47635;SDS011;33364;50.766;15.338;2023-10-09T08:28:41;18.55;;;10.60;;
47635;SDS011;33364;50.766;15.338;2023-10-09T08:31:12;26.23;;;13.98;;
47635;SDS011;33364;50.766;15.338;2023-10-09T08:34:00;43.70;;;26.88;;
47635;SDS011;33364;50.766;15.338;2023-10-09T08:36:27;18.45;;;12.40;;
47635;SDS011;33364;50.766;15.338;2023-10-09T08:38:55;46.92;;;11.75;;
47635;SDS011;33364;50.766;15.338;2023-10-09T08:41:24;11.63;;;7.45;;
47635;SDS011;33364;50.766;15.338;2023-10-09T08:43:56;7.03;;;4.88;;
47635;SDS011;33364;50.766;15.338;2023-10-09T08:46:26;4.93;;;4.22;;
47635;SDS011;33364;50.766;15.338;2023-10-09T08:48:54;5.35;;;4.18;;
47635;SDS011;33364;50.766;15.338;2023-10-09T08:51:20;6.32;;;4.50;;
47635;SDS011;33364;50.766;15.338;2023-10-09T08:53:49;8.30;;;4.28;;
47635;SDS011;33364;50.766;15.338;2023-10-09T08:56:18;5.35;;;3.90;;
47635;SDS011;33364;50.766;15.338;2023-10-09T08:58:55;4.95;;;3.80;;
47635;SDS011;33364;50.766;15.338;2023-10-09T09:01:22;4.82;;;3.97;;
47635;SDS011;33364;50.766;15.338;2023-10-09T09:03:50;4.88;;;3.95;;
47635;SDS011;33364;50.766;15.338;2023-10-09T09:06:20;7.32;;;3.83;;
47635;SDS011;33364;50.766;15.338;2023-10-09T09:08:49;7.07;;;5.80;;
47635;SDS011;33364;50.766;15.338;2023-10-09T09:11:20;5.32;;;4.35;;
47635;SDS011;33364;50.766;15.338;2023-10-09T09:16:24;6.10;;;5.03;;
47635;SDS011;33364;50.766;15.338;2023-10-09T09:19:03;9.68;;;5.15;;
47635;SDS011;33364;50.766;15.338;2023-10-09T09:21:37;5.68;;;4.38;;
47635;SDS011;33364;50.766;15.338;2023-10-09T09:24:07;5.85;;;4.95;;
47635;SDS011;33364;50.766;15.338;2023-10-09T09:29:12;3.28;;;2.80;;
47635;SDS011;33364;50.766;15.338;2023-10-09T09:31:51;4.60;;;3.50;;
47635;SDS011;33364;50.766;15.338;2023-10-09T09:34:23;14.05;;;8.70;;
47635;SDS011;33364;50.766;15.338;2023-10-09T09:36:57;13.93;;;8.70;;
47635;SDS011;33364;50.766;15.338;2023-10-09T09:39:27;9.73;;;7.95;;
47635;SDS011;33364;50.766;15.338;2023-10-09T09:42:00;8.27;;;6.13;;
47635;SDS011;33364;50.766;15.338;2023-10-09T09:44:31;16.30;;;9.25;;
47635;SDS011;33364;50.766;15.338;2023-10-09T09:46:59;40.55;;;19.83;;
47635;SDS011;33364;50.766;15.338;2023-10-09T09:49:26;35.63;;;18.80;;
47635;SDS011;33364;50.766;15.338;2023-10-09T09:52:00;24.38;;;14.50;;
47635;SDS011;33364;50.766;15.338;2023-10-09T09:54:28;13.80;;;8.65;;
47635;SDS011;33364;50.766;15.338;2023-10-09T09:56:58;16.58;;;10.13;;
47635;SDS011;33364;50.766;15.338;2023-10-09T09:59:33;13.25;;;9.38;;
47635;SDS011;33364;50.766;15.338;2023-10-09T10:02:05;17.25;;;11.93;;
47635;SDS011;33364;50.766;15.338;2023-10-09T10:04:40;15.05;;;12.15;;
47635;SDS011;33364;50.766;15.338;2023-10-09T10:07:09;8.90;;;7.72;;
47635;SDS011;33364;50.766;15.338;2023-10-09T10:09:38;7.05;;;5.15;;
47635;SDS011;33364;50.766;15.338;2023-10-09T10:12:06;5.05;;;3.92;;
47635;SDS011;33364;50.766;15.338;2023-10-09T10:14:54;6.15;;;4.75;;
47635;SDS011;33364;50.766;15.338;2023-10-09T10:20:24;7.78;;;6.53;;
47635;SDS011;33364;50.766;15.338;2023-10-09T10:22:51;10.02;;;7.38;;
47635;SDS011;33364;50.766;15.338;2023-10-09T10:25:43;21.67;;;13.73;;
47635;SDS011;33364;50.766;15.338;2023-10-09T10:31:10;15.70;;;10.40;;
47635;SDS011;33364;50.766;15.338;2023-10-09T10:36:24;6.18;;;4.57;;
47635;SDS011;33364;50.766;15.338;2023-10-09T10:38:59;12.07;;;8.05;;
47635;SDS011;33364;50.766;15.338;2023-10-09T10:41:34;12.50;;;8.02;;
47635;SDS011;33364;50.766;15.338;2023-10-09T10:44:30;12.43;;;7.82;;
47635;SDS011;33364;50.766;15.338;2023-10-09T10:47:01;9.48;;;6.43;;
47635;SDS011;33364;50.766;15.338;2023-10-09T10:49:29;10.80;;;6.63;;
47635;SDS011;33364;50.766;15.338;2023-10-09T10:52:05;27.80;;;16.45;;
47635;SDS011;33364;50.766;15.338;2023-10-09T10:54:44;58.70;;;29.05;;
47635;SDS011;33364;50.766;15.338;2023-10-09T10:57:16;61.63;;;30.48;;
47635;SDS011;33364;50.766;15.338;2023-10-09T11:04:37;30.05;;;19.95;;
47635;SDS011;33364;50.766;15.338;2023-10-09T11:07:21;38.72;;;16.42;;
47635;SDS011;33364;50.766;15.338;2023-10-09T11:09:53;28.05;;;12.48;;
47635;SDS011;33364;50.766;15.338;2023-10-09T11:15:31;8.15;;;4.95;;
47635;SDS011;33364;50.766;15.338;2023-10-09T11:18:12;7.03;;;4.25;;
47635;SDS011;33364;50.766;15.338;2023-10-09T11:20:50;14.38;;;6.07;;
47635;SDS011;33364;50.766;15.338;2023-10-09T11:23:29;11.40;;;6.40;;
47635;SDS011;33364;50.766;15.338;2023-10-09T11:26:15;12.63;;;7.28;;
47635;SDS011;33364;50.766;15.338;2023-10-09T11:32:03;24.20;;;19.20;;
47635;SDS011;33364;50.766;15.338;2023-10-09T11:34:34;53.90;;;37.13;;
47635;SDS011;33364;50.766;15.338;2023-10-09T11:37:03;14.70;;;8.77;;
47635;SDS011;33364;50.766;15.338;2023-10-09T11:39:38;6.68;;;5.05;;
47635;SDS011;33364;50.766;15.338;2023-10-09T11:42:20;8.80;;;5.68;;
47635;SDS011;33364;50.766;15.338;2023-10-09T11:45:06;9.82;;;6.95;;
47635;SDS011;33364;50.766;15.338;2023-10-09T11:48:15;7.68;;;6.20;;
47635;SDS011;33364;50.766;15.338;2023-10-09T11:50:47;8.90;;;6.35;;
47635;SDS011;33364;50.766;15.338;2023-10-09T11:53:20;8.77;;;5.70;;
47635;SDS011;33364;50.766;15.338;2023-10-09T11:55:49;7.90;;;6.32;;
47635;SDS011;33364;50.766;15.338;2023-10-09T11:58:16;9.40;;;7.15;;
47635;SDS011;33364;50.766;15.338;2023-10-09T12:00:57;8.52;;;6.93;;
47635;SDS011;33364;50.766;15.338;2023-10-09T12:03:31;7.25;;;6.50;;
47635;SDS011;33364;50.766;15.338;2023-10-09T12:05:58;5.90;;;5.13;;
47635;SDS011;33364;50.766;15.338;2023-10-09T12:08:31;5.70;;;5.10;;
47635;SDS011;33364;50.766;15.338;2023-10-09T12:10:57;7.65;;;4.90;;
47635;SDS011;33364;50.766;15.338;2023-10-09T12:13:24;7.63;;;4.57;;
47635;SDS011;33364;50.766;15.338;2023-10-09T12:15:51;5.25;;;4.22;;
47635;SDS011;33364;50.766;15.338;2023-10-09T12:18:18;5.07;;;3.95;;
47635;SDS011;33364;50.766;15.338;2023-10-09T12:20:45;5.85;;;3.80;;
47635;SDS011;33364;50.766;15.338;2023-10-09T12:23:20;4.57;;;4.00;;
47635;SDS011;33364;50.766;15.338;2023-10-09T12:25:50;4.45;;;4.05;;
47635;SDS011;33364;50.766;15.338;2023-10-09T12:28:18;4.03;;;3.60;;
47635;SDS011;33364;50.766;15.338;2023-10-09T12:30:48;4.80;;;3.70;;
47635;SDS011;33364;50.766;15.338;2023-10-09T12:33:16;4.55;;;4.15;;
47635;SDS011;33364;50.766;15.338;2023-10-09T12:35:43;4.00;;;3.50;;
47635;SDS011;33364;50.766;15.338;2023-10-09T12:38:13;4.55;;;3.55;;
47635;SDS011;33364;50.766;15.338;2023-10-09T12:40:44;4.40;;;3.50;;
47635;SDS011;33364;50.766;15.338;2023-10-09T12:43:17;7.35;;;6.65;;
47635;SDS011;33364;50.766;15.338;2023-10-09T12:45:47;19.90;;;11.48;;
47635;SDS011;33364;50.766;15.338;2023-10-09T12:48:13;38.22;;;22.10;;
47635;SDS011;33364;50.766;15.338;2023-10-09T12:50:39;40.03;;;21.25;;
47635;SDS011;33364;50.766;15.338;2023-10-09T12:53:10;27.98;;;14.60;;
47635;SDS011;33364;50.766;15.338;2023-10-09T12:55:37;32.22;;;16.65;;
47635;SDS011;33364;50.766;15.338;2023-10-09T12:58:06;32.63;;;18.77;;
47635;SDS011;33364;50.766;15.338;2023-10-09T13:00:39;36.30;;;19.92;;
47635;SDS011;33364;50.766;15.338;2023-10-09T13:03:15;27.13;;;15.73;;
47635;SDS011;33364;50.766;15.338;2023-10-09T13:05:47;31.42;;;15.88;;
47635;SDS011;33364;50.766;15.338;2023-10-09T13:08:19;25.42;;;13.18;;
47635;SDS011;33364;50.766;15.338;2023-10-09T13:11:03;18.23;;;9.98;;
47635;SDS011;33364;50.766;15.338;2023-10-09T13:13:39;13.73;;;7.60;;
47635;SDS011;33364;50.766;15.338;2023-10-09T13:16:07;15.15;;;9.13;;
47635;SDS011;33364;50.766;15.338;2023-10-09T13:18:34;20.80;;;13.25;;
47635;SDS011;33364;50.766;15.338;2023-10-09T13:21:00;45.08;;;24.10;;
47635;SDS011;33364;50.766;15.338;2023-10-09T13:23:30;65.85;;;35.22;;
47635;SDS011;33364;50.766;15.338;2023-10-09T13:26:04;63.63;;;32.47;;
47635;SDS011;33364;50.766;15.338;2023-10-09T13:28:46;26.05;;;14.32;;
47635;SDS011;33364;50.766;15.338;2023-10-09T13:31:16;11.90;;;6.25;;
47635;SDS011;33364;50.766;15.338;2023-10-09T13:33:44;10.00;;;6.75;;
47635;SDS011;33364;50.766;15.338;2023-10-09T13:36:10;12.60;;;10.30;;
47635;SDS011;33364;50.766;15.338;2023-10-09T13:38:45;29.33;;;26.02;;
47635;SDS011;33364;50.766;15.338;2023-10-09T13:41:11;24.33;;;20.52;;
47635;SDS011;33364;50.766;15.338;2023-10-09T13:43:43;13.70;;;11.95;;
47635;SDS011;33364;50.766;15.338;2023-10-09T13:46:12;13.50;;;11.90;;
47635;SDS011;33364;50.766;15.338;2023-10-09T13:48:42;12.65;;;11.30;;
47635;SDS011;33364;50.766;15.338;2023-10-09T13:51:12;17.30;;;14.05;;
47635;SDS011;33364;50.766;15.338;2023-10-09T13:53:49;16.13;;;13.95;;
47635;SDS011;33364;50.766;15.338;2023-10-09T13:56:16;16.70;;;14.07;;
47635;SDS011;33364;50.766;15.338;2023-10-09T13:58:50;17.67;;;14.52;;
47635;SDS011;33364;50.766;15.338;2023-10-09T14:01:20;14.88;;;12.73;;
47635;SDS011;33364;50.766;15.338;2023-10-09T14:06:19;14.75;;;10.50;;
47635;SDS011;33364;50.766;15.338;2023-10-09T14:08:59;13.88;;;11.27;;
47635;SDS011;33364;50.766;15.338;2023-10-09T14:11:28;14.05;;;10.80;;
47635;SDS011;33364;50.766;15.338;2023-10-09T14:13:54;13.35;;;9.65;;
47635;SDS011;33364;50.766;15.338;2023-10-09T14:16:20;13.57;;;10.38;;
47635;SDS011;33364;50.766;15.338;2023-10-09T14:18:58;13.40;;;10.95;;
47635;SDS011;33364;50.766;15.338;2023-10-09T14:21:33;16.80;;;13.30;;
47635;SDS011;33364;50.766;15.338;2023-10-09T14:24:06;16.60;;;13.35;;
47635;SDS011;33364;50.766;15.338;2023-10-09T14:26:44;16.85;;;11.55;;
47635;SDS011;33364;50.766;15.338;2023-10-09T14:29:12;24.80;;;19.65;;
47635;SDS011;33364;50.766;15.338;2023-10-09T14:31:45;20.13;;;14.75;;
47635;SDS011;33364;50.766;15.338;2023-10-09T14:34:25;17.00;;;10.95;;
47635;SDS011;33364;50.766;15.338;2023-10-09T14:39:27;13.45;;;9.38;;
47635;SDS011;33364;50.766;15.338;2023-10-09T14:41:53;11.55;;;9.05;;
47635;SDS011;33364;50.766;15.338;2023-10-09T14:44:20;13.23;;;10.75;;
47635;SDS011;33364;50.766;15.338;2023-10-09T14:46:46;14.90;;;10.20;;
47635;SDS011;33364;50.766;15.338;2023-10-09T14:49:12;12.85;;;9.45;;
47635;SDS011;33364;50.766;15.338;2023-10-09T14:51:39;15.85;;;11.15;;
47635;SDS011;33364;50.766;15.338;2023-10-09T14:54:05;14.23;;;9.65;;
47635;SDS011;33364;50.766;15.338;2023-10-09T14:56:33;17.88;;;8.85;;
47635;SDS011;33364;50.766;15.338;2023-10-09T14:59:02;12.23;;;9.52;;
47635;SDS011;33364;50.766;15.338;2023-10-09T15:01:28;11.65;;;9.88;;
47635;SDS011;33364;50.766;15.338;2023-10-09T15:03:59;12.05;;;9.48;;
47635;SDS011;33364;50.766;15.338;2023-10-09T15:06:26;11.02;;;9.20;;
47635;SDS011;33364;50.766;15.338;2023-10-09T15:08:54;11.32;;;9.73;;
47635;SDS011;33364;50.766;15.338;2023-10-09T15:11:21;14.05;;;10.02;;
47635;SDS011;33364;50.766;15.338;2023-10-09T15:13:51;12.88;;;10.93;;
47635;SDS011;33364;50.766;15.338;2023-10-09T15:16:18;10.82;;;9.02;;
47635;SDS011;33364;50.766;15.338;2023-10-09T15:18:47;12.43;;;9.82;;
47635;SDS011;33364;50.766;15.338;2023-10-09T15:21:18;15.48;;;12.10;;
47635;SDS011;33364;50.766;15.338;2023-10-09T15:23:51;12.77;;;10.15;;
47635;SDS011;33364;50.766;15.338;2023-10-09T15:26:19;13.27;;;10.88;;
47635;SDS011;33364;50.766;15.338;2023-10-09T15:28:46;15.00;;;11.07;;
47635;SDS011;33364;50.766;15.338;2023-10-09T15:31:14;18.80;;;12.02;;
47635;SDS011;33364;50.766;15.338;2023-10-09T15:33:42;25.98;;;14.77;;
47635;SDS011;33364;50.766;15.338;2023-10-09T15:36:12;27.88;;;16.88;;
47635;SDS011;33364;50.766;15.338;2023-10-09T15:38:39;35.30;;;16.00;;
47635;SDS011;33364;50.766;15.338;2023-10-09T15:41:05;33.15;;;17.63;;
47635;SDS011;33364;50.766;15.338;2023-10-09T15:43:32;42.15;;;20.52;;
47635;SDS011;33364;50.766;15.338;2023-10-09T15:45:59;53.20;;;26.80;;
47635;SDS011;33364;50.766;15.338;2023-10-09T15:48:25;70.22;;;31.92;;
47635;SDS011;33364;50.766;15.338;2023-10-09T15:50:50;129.25;;;50.65;;